sensor_id;sensor_type;location;lat;lon;timestamp;temperature;humidity
18268;DHT22;9260;49.998;19.880;2023-04-03T00:05:46;1.50;1.00
18268;DHT22;9260;49.998;19.880;2023-04-03T00:15:52;1.40;1.00
18268;DHT22;9260;49.998;19.880;2023-04-03T00:25:56;1.50;1.00
18268;DHT22;9260;49.998;19.880;2023-04-03T00:36:05;1.40;1.00
18268;DHT22;9260;49.998;19.880;2023-04-03T00:46:11;1.40;1.00
18268;DHT22;9260;49.998;19.880;2023-04-03T00:56:18;1.20;1.00
18268;DHT22;9260;49.998;19.880;2023-04-03T01:06:27;1.30;1.00
18268;DHT22;9260;49.998;19.880;2023-04-03T01:16:40;1.10;1.00
18268;DHT22;9260;49.998;19.880;2023-04-03T01:26:44;1.10;1.00
18268;DHT22;9260;49.998;19.880;2023-04-03T01:36:50;0.90;1.00
18268;DHT22;9260;49.998;19.880;2023-04-03T01:46:55;0.90;1.00
18268;DHT22;9260;49.998;19.880;2023-04-03T01:57:03;0.70;1.00
18268;DHT22;9260;49.998;19.880;2023-04-03T02:07:08;0.70;1.00
18268;DHT22;9260;49.998;19.880;2023-04-03T02:17:13;0.60;1.00
18268;DHT22;9260;49.998;19.880;2023-04-03T02:27:17;0.70;1.00
18268;DHT22;9260;49.998;19.880;2023-04-03T02:37:24;0.70;1.00
18268;DHT22;9260;49.998;19.880;2023-04-03T02:47:29;0.80;1.00
18268;DHT22;9260;49.998;19.880;2023-04-03T02:57:34;0.70;1.00
18268;DHT22;9260;49.998;19.880;2023-04-03T03:07:38;0.80;1.00
18268;DHT22;9260;49.998;19.880;2023-04-03T03:17:43;0.60;1.00
18268;DHT22;9260;49.998;19.880;2023-04-03T03:27:47;0.50;1.00
18268;DHT22;9260;49.998;19.880;2023-04-03T03:37:52;0.50;1.00
18268;DHT22;9260;49.998;19.880;2023-04-03T03:47:57;0.40;1.00
18268;DHT22;9260;49.998;19.880;2023-04-03T03:58:04;0.40;1.00
18268;DHT22;9260;49.998;19.880;2023-04-03T04:08:09;0.40;1.00
18268;DHT22;9260;49.998;19.880;2023-04-03T04:18:15;0.20;1.00
18268;DHT22;9260;49.998;19.880;2023-04-03T04:28:22;0.20;1.00
18268;DHT22;9260;49.998;19.880;2023-04-03T04:38:31;0.20;1.00
18268;DHT22;9260;49.998;19.880;2023-04-03T04:48:35;0.30;1.00
18268;DHT22;9260;49.998;19.880;2023-04-03T04:58:42;0.30;1.00
18268;DHT22;9260;49.998;19.880;2023-04-03T05:08:46;0.50;1.00
18268;DHT22;9260;49.998;19.880;2023-04-03T05:18:52;0.50;1.00
18268;DHT22;9260;49.998;19.880;2023-04-03T05:28:57;0.70;1.00
18268;DHT22;9260;49.998;19.880;2023-04-03T05:39:03;1.10;1.00
18268;DHT22;9260;49.998;19.880;2023-04-03T05:49:10;1.30;1.00
18268;DHT22;9260;49.998;19.880;2023-04-03T05:59:15;1.20;1.00
18268;DHT22;9260;49.998;19.880;2023-04-03T06:09:21;1.30;1.00
18268;DHT22;9260;49.998;19.880;2023-04-03T06:19:27;0.90;1.00
18268;DHT22;9260;49.998;19.880;2023-04-03T06:29:32;0.40;1.00
18268;DHT22;9260;49.998;19.880;2023-04-03T06:39:37;0.40;1.00
18268;DHT22;9260;49.998;19.880;2023-04-03T06:49:41;1.00;1.00
18268;DHT22;9260;49.998;19.880;2023-04-03T06:59:46;1.30;1.00
18268;DHT22;9260;49.998;19.880;2023-04-03T07:09:51;1.70;1.00
18268;DHT22;9260;49.998;19.880;2023-04-03T07:19:56;2.20;1.00
18268;DHT22;9260;49.998;19.880;2023-04-03T07:30:06;2.70;1.00
18268;DHT22;9260;49.998;19.880;2023-04-03T07:40:12;3.10;1.00
18268;DHT22;9260;49.998;19.880;2023-04-03T07:50:17;3.00;1.00
18268;DHT22;9260;49.998;19.880;2023-04-03T08:00:22;3.10;1.00
18268;DHT22;9260;49.998;19.880;2023-04-03T08:10:27;4.50;1.00
18268;DHT22;9260;49.998;19.880;2023-04-03T08:20:34;8.50;1.00
18268;DHT22;9260;49.998;19.880;2023-04-03T08:30:39;14.50;1.00
18268;DHT22;9260;49.998;19.880;2023-04-03T08:40:45;13.60;1.00
18268;DHT22;9260;49.998;19.880;2023-04-03T08:50:52;11.70;1.00
18268;DHT22;9260;49.998;19.880;2023-04-03T09:01:02;10.30;1.00
18268;DHT22;9260;49.998;19.880;2023-04-03T09:11:11;8.30;1.00
18268;DHT22;9260;49.998;19.880;2023-04-03T09:21:25;7.50;1.00
18268;DHT22;9260;49.998;19.880;2023-04-03T09:31:37;6.00;1.00
18268;DHT22;9260;49.998;19.880;2023-04-03T09:41:56;5.20;1.00
18268;DHT22;9260;49.998;19.880;2023-04-03T09:52:18;4.20;1.00
18268;DHT22;9260;49.998;19.880;2023-04-03T10:02:32;3.70;1.00
18268;DHT22;9260;49.998;19.880;2023-04-03T10:12:38;3.70;1.00
18268;DHT22;9260;49.998;19.880;2023-04-03T10:22:51;4.00;1.00
18268;DHT22;9260;49.998;19.880;2023-04-03T10:33:19;3.30;1.00
18268;DHT22;9260;49.998;19.880;2023-04-03T10:43:33;3.90;1.00
18268;DHT22;9260;49.998;19.880;2023-04-03T10:53:43;4.40;1.00
18268;DHT22;9260;49.998;19.880;2023-04-03T11:03:51;3.90;1.00
18268;DHT22;9260;49.998;19.880;2023-04-03T11:14:01;3.90;1.00
18268;DHT22;9260;49.998;19.880;2023-04-03T11:24:15;3.80;1.00
18268;DHT22;9260;49.998;19.880;2023-04-03T11:34:27;4.10;1.00
18268;DHT22;9260;49.998;19.880;2023-04-03T11:44:39;3.60;1.00
18268;DHT22;9260;49.998;19.880;2023-04-03T11:54:48;7.40;1.00
18268;DHT22;9260;49.998;19.880;2023-04-03T12:05:25;6.50;1.00
18268;DHT22;9260;49.998;19.880;2023-04-03T12:15:49;8.40;1.00
18268;DHT22;9260;49.998;19.880;2023-04-03T12:26:03;13.90;1.00
18268;DHT22;9260;49.998;19.880;2023-04-03T12:36:11;15.20;1.00
18268;DHT22;9260;49.998;19.880;2023-04-03T12:46:21;12.10;1.00
18268;DHT22;9260;49.998;19.880;2023-04-03T12:56:28;14.40;1.00
18268;DHT22;9260;49.998;19.880;2023-04-03T13:06:39;13.50;1.00
18268;DHT22;9260;49.998;19.880;2023-04-03T13:16:53;14.10;1.00
18268;DHT22;9260;49.998;19.880;2023-04-03T13:26:59;12.80;1.00
18268;DHT22;9260;49.998;19.880;2023-04-03T13:37:03;10.20;1.00
18268;DHT22;9260;49.998;19.880;2023-04-03T13:47:21;9.70;1.00
18268;DHT22;9260;49.998;19.880;2023-04-03T13:57:27;9.20;1.00
18268;DHT22;9260;49.998;19.880;2023-04-03T14:07:32;8.70;1.00
18268;DHT22;9260;49.998;19.880;2023-04-03T14:17:36;8.10;1.00
18268;DHT22;9260;49.998;19.880;2023-04-03T14:27:44;7.50;1.00
18268;DHT22;9260;49.998;19.880;2023-04-03T14:37:49;6.30;1.00
18268;DHT22;9260;49.998;19.880;2023-04-03T14:47:56;6.60;1.00
18268;DHT22;9260;49.998;19.880;2023-04-03T14:57:59;6.40;1.00
18268;DHT22;9260;49.998;19.880;2023-04-03T15:08:04;6.00;1.00
18268;DHT22;9260;49.998;19.880;2023-04-03T15:18:14;5.40;1.00
18268;DHT22;9260;49.998;19.880;2023-04-03T15:28:23;5.30;1.00
18268;DHT22;9260;49.998;19.880;2023-04-03T15:38:31;5.40;1.00
18268;DHT22;9260;49.998;19.880;2023-04-03T15:48:36;4.90;1.00
18268;DHT22;9260;49.998;19.880;2023-04-03T15:58:40;4.20;1.00
18268;DHT22;9260;49.998;19.880;2023-04-03T16:08:46;3.30;1.00
18268;DHT22;9260;49.998;19.880;2023-04-03T16:18:51;3.10;1.00
18268;DHT22;9260;49.998;19.880;2023-04-03T16:28:56;2.80;1.00
18268;DHT22;9260;49.998;19.880;2023-04-03T16:38:59;2.50;1.00
18268;DHT22;9260;49.998;19.880;2023-04-03T16:49:04;2.70;1.00
18268;DHT22;9260;49.998;19.880;2023-04-03T16:59:08;2.40;1.00
18268;DHT22;9260;49.998;19.880;2023-04-03T17:09:13;1.80;1.00
18268;DHT22;9260;49.998;19.880;2023-04-03T17:19:18;1.30;1.00
18268;DHT22;9260;49.998;19.880;2023-04-03T17:29:23;0.90;1.00
18268;DHT22;9260;49.998;19.880;2023-04-03T17:39:27;0.60;1.00
18268;DHT22;9260;49.998;19.880;2023-04-03T17:49:32;0.30;1.00
18268;DHT22;9260;49.998;19.880;2023-04-03T17:59:36;0.00;1.00
18268;DHT22;9260;49.998;19.880;2023-04-03T18:09:41;-0.50;1.00
18268;DHT22;9260;49.998;19.880;2023-04-03T18:19:44;-0.60;1.00
18268;DHT22;9260;49.998;19.880;2023-04-03T18:29:52;-0.50;1.00
18268;DHT22;9260;49.998;19.880;2023-04-03T18:39:58;-0.80;1.00
18268;DHT22;9260;49.998;19.880;2023-04-03T18:50:05;-1.00;1.00
18268;DHT22;9260;49.998;19.880;2023-04-03T19:00:10;-1.10;1.00
18268;DHT22;9260;49.998;19.880;2023-04-03T19:10:16;-1.30;1.00
18268;DHT22;9260;49.998;19.880;2023-04-03T19:20:21;-1.60;1.00
18268;DHT22;9260;49.998;19.880;2023-04-03T19:30:26;-1.80;1.00
18268;DHT22;9260;49.998;19.880;2023-04-03T19:40:29;-1.50;1.00
18268;DHT22;9260;49.998;19.880;2023-04-03T19:50:35;-1.20;1.00
18268;DHT22;9260;49.998;19.880;2023-04-03T20:00:40;-0.90;1.00
18268;DHT22;9260;49.998;19.880;2023-04-03T20:10:46;-0.80;1.00
18268;DHT22;9260;49.998;19.880;2023-04-03T20:20:53;-0.70;1.00
18268;DHT22;9260;49.998;19.880;2023-04-03T20:30:59;-0.60;1.00
18268;DHT22;9260;49.998;19.880;2023-04-03T20:41:03;-0.50;1.00
18268;DHT22;9260;49.998;19.880;2023-04-03T20:51:10;-0.50;1.00
18268;DHT22;9260;49.998;19.880;2023-04-03T21:01:16;-0.40;1.00
18268;DHT22;9260;49.998;19.880;2023-04-03T21:22:24;-0.40;1.00
18268;DHT22;9260;49.998;19.880;2023-04-03T21:32:28;-0.40;1.00
18268;DHT22;9260;49.998;19.880;2023-04-03T21:42:33;-0.40;1.00
18268;DHT22;9260;49.998;19.880;2023-04-03T21:52:37;-0.30;1.00
18268;DHT22;9260;49.998;19.880;2023-04-03T22:02:42;-0.30;1.00
18268;DHT22;9260;49.998;19.880;2023-04-03T22:12:46;-0.30;1.00
18268;DHT22;9260;49.998;19.880;2023-04-03T22:22:51;-0.30;1.00
18268;DHT22;9260;49.998;19.880;2023-04-03T22:32:55;-0.40;1.00
18268;DHT22;9260;49.998;19.880;2023-04-03T22:43:00;-0.40;1.00
18268;DHT22;9260;49.998;19.880;2023-04-03T22:53:04;-0.40;1.00
18268;DHT22;9260;49.998;19.880;2023-04-03T23:03:09;-0.40;1.00
18268;DHT22;9260;49.998;19.880;2023-04-03T23:13:15;-0.60;1.00
18268;DHT22;9260;49.998;19.880;2023-04-03T23:23:20;-0.70;1.00
18268;DHT22;9260;49.998;19.880;2023-04-03T23:33:24;-0.70;1.00
18268;DHT22;9260;49.998;19.880;2023-04-03T23:43:30;-0.80;1.00
18268;DHT22;9260;49.998;19.880;2023-04-03T23:53:34;-1.10;1.00
